Time;durP1;ratioP1;P1;durP2;ratioP2;P2;SDS_P1;SDS_P2;PMS_P1;PMS_P2;Temp;Humidity;BMP_temperature;BMP_pressure;BME280_temperature;BME280_humidity;BME280_pressure;Samples;Min_cycle;Max_cycle;Signal;HPM_P1;HPM_P2
2022/03/14 00:00:22;;;;;;;3.25;2.33;;;11.30;99.90;;;;;;5074686;28;20631;-48
2022/03/14 00:02:48;;;;;;;3.75;2.90;;;11.30;99.90;;;;;;5074949;28;20189;-48
2022/03/14 00:05:15;;;;;;;3.83;2.42;;;11.40;99.90;;;;;;5074669;28;20173;-49
2022/03/14 00:07:50;;;;;;;2.67;2.47;;;11.40;99.90;;;;;;5074943;28;20170;-48
2022/03/14 00:10:17;;;;;;;4.90;3.22;;;11.40;99.90;;;;;;5057036;28;20535;-49
2022/03/14 00:12:44;;;;;;;3.50;2.70;;;11.50;99.90;;;;;;5074579;28;20173;-48
2022/03/14 00:15:14;;;;;;;4.47;3.00;;;11.40;99.90;;;;;;5074510;28;20576;-49
2022/03/14 00:17:41;;;;;;;2.85;2.55;;;11.50;99.90;;;;;;5074399;28;20570;-49
2022/03/14 00:20:09;;;;;;;2.88;2.58;;;11.40;99.90;;;;;;5074673;28;20651;-49
2022/03/14 00:22:36;;;;;;;2.92;2.45;;;11.40;99.90;;;;;;5074558;28;20661;-48
2022/03/14 00:25:02;;;;;;;3.80;3.00;;;11.30;99.90;;;;;;5074892;28;20178;-48
2022/03/14 00:27:28;;;;;;;3.53;2.63;;;11.30;99.90;;;;;;5074198;28;20231;-48
2022/03/14 00:29:54;;;;;;;3.40;2.70;;;11.40;99.90;;;;;;5074398;28;20166;-48
2022/03/14 00:32:19;;;;;;;3.72;2.60;;;11.50;99.90;;;;;;5074098;28;20177;-48
2022/03/14 00:34:44;;;;;;;2.75;2.50;;;11.50;99.90;;;;;;5056538;28;20180;-48
2022/03/14 00:37:10;;;;;;;3.65;3.13;;;11.40;99.90;;;;;;5074010;28;20216;-48
2022/03/14 00:39:36;;;;;;;4.70;2.97;;;11.40;99.90;;;;;;5074104;28;20211;-48
2022/03/14 00:42:02;;;;;;;3.20;2.90;;;11.30;99.90;;;;;;5074526;28;20628;-49
2022/03/14 00:44:28;;;;;;;5.13;4.25;;;11.30;99.90;;;;;;5073950;28;20203;-49
2022/03/14 00:46:54;;;;;;;5.22;4.15;;;11.30;99.90;;;;;;5073671;28;20214;-48
2022/03/14 00:49:20;;;;;;;3.47;3.15;;;11.20;99.90;;;;;;5074244;28;20192;-48
2022/03/14 00:51:45;;;;;;;3.58;2.90;;;11.20;99.90;;;;;;5074036;28;20627;-49
2022/03/14 00:54:12;;;;;;;4.10;2.33;;;11.10;99.90;;;;;;5073996;28;20541;-48
2022/03/14 00:56:37;;;;;;;3.20;2.47;;;11.10;99.90;;;;;;5073570;28;20351;-48
2022/03/14 00:59:03;;;;;;;3.35;2.33;;;11.00;99.90;;;;;;5073999;28;20204;-48
2022/03/14 01:01:28;;;;;;;3.63;2.53;;;11.10;99.90;;;;;;5073505;28;20261;-48
2022/03/14 01:03:55;;;;;;;2.75;2.55;;;11.00;99.90;;;;;;5073497;28;20166;-49
2022/03/14 01:06:21;;;;;;;3.03;2.50;;;11.10;99.90;;;;;;5073393;28;20220;-48
2022/03/14 01:08:47;;;;;;;3.25;2.42;;;11.10;99.90;;;;;;5055515;28;20174;-49
2022/03/14 01:11:12;;;;;;;3.03;2.67;;;11.10;99.90;;;;;;5073647;28;20227;-49
2022/03/14 01:13:38;;;;;;;3.75;2.60;;;11.10;99.90;;;;;;5073572;28;20162;-48
2022/03/14 01:16:04;;;;;;;3.38;2.92;;;11.20;99.90;;;;;;5073598;28;20194;-49
2022/03/14 01:18:30;;;;;;;3.53;2.85;;;11.10;99.90;;;;;;5073472;28;20224;-49
2022/03/14 01:20:56;;;;;;;4.38;2.60;;;11.20;99.90;;;;;;5073204;28;20243;-49
2022/03/14 01:23:23;;;;;;;3.30;2.78;;;11.10;99.90;;;;;;5073161;28;20635;-49
2022/03/14 01:25:49;;;;;;;2.92;2.63;;;11.10;99.90;;;;;;5073064;28;20174;-49
2022/03/14 01:28:15;;;;;;;2.97;2.50;;;11.10;99.90;;;;;;5073060;28;20222;-49
2022/03/14 01:30:43;;;;;;;2.90;2.55;;;11.10;99.90;;;;;;5073234;28;20182;-49
2022/03/14 01:33:09;;;;;;;3.22;2.80;;;11.20;99.90;;;;;;5073189;28;20189;-49
2022/03/14 01:35:36;;;;;;;3.85;3.42;;;11.20;99.90;;;;;;5073149;28;20170;-49
2022/03/14 01:38:02;;;;;;;4.93;2.78;;;11.10;99.90;;;;;;5073367;28;20350;-49
2022/03/14 01:40:28;;;;;;;3.45;2.85;;;11.00;99.90;;;;;;5072720;28;20193;-49
2022/03/14 01:42:54;;;;;;;3.20;2.78;;;11.00;99.90;;;;;;5073074;28;20243;-49
2022/03/14 01:45:19;;;;;;;2.88;2.63;;;10.90;99.90;;;;;;5072781;28;20165;-49
2022/03/14 01:47:46;;;;;;;3.22;2.78;;;10.90;99.90;;;;;;5072554;28;20218;-49
2022/03/14 01:50:13;;;;;;;2.97;2.67;;;10.90;99.90;;;;;;5072943;28;20177;-49
2022/03/14 01:52:39;;;;;;;3.70;2.90;;;11.00;99.90;;;;;;5072937;28;20170;-49
2022/03/14 01:55:06;;;;;;;3.17;2.78;;;10.90;99.90;;;;;;5072934;28;20622;-49
2022/03/14 01:57:33;;;;;;;3.35;3.00;;;10.90;99.90;;;;;;5072829;28;20201;-49
2022/03/14 02:00:00;;;;;;;3.85;2.72;;;10.80;99.90;;;;;;5072406;28;20193;-48
2022/03/14 02:02:26;;;;;;;3.83;3.15;;;10.80;99.90;;;;;;5072476;28;20634;-48
2022/03/14 02:04:52;;;;;;;3.22;2.85;;;10.80;99.90;;;;;;5072393;28;20256;-49
2022/03/14 02:07:17;;;;;;;3.45;2.60;;;10.70;99.90;;;;;;5071612;28;20642;-49
2022/03/14 02:09:43;;;;;;;3.92;3.40;;;10.80;99.90;;;;;;5072275;28;20166;-49
2022/03/14 02:12:09;;;;;;;5.53;3.45;;;10.80;99.90;;;;;;5072323;28;20582;-48
2022/03/14 02:14:39;;;;;;;4.13;2.80;;;10.70;99.90;;;;;;5072762;28;20587;-48
2022/03/14 02:17:12;;;;;;;4.15;3.17;;;10.80;99.90;;;;;;5072699;28;20213;-48
2022/03/14 02:19:39;;;;;;;3.65;3.22;;;10.60;99.90;;;;;;5072361;28;20174;-48
2022/03/14 02:22:11;;;;;;;3.75;3.33;;;10.60;99.90;;;;;;5072487;28;20257;-49
2022/03/14 02:24:37;;;;;;;5.63;3.15;;;10.50;99.90;;;;;;5072152;28;20186;-48
2022/03/14 02:27:03;;;;;;;4.47;3.10;;;10.30;99.90;;;;;;5072381;28;20177;-48
2022/03/14 02:29:29;;;;;;;4.00;2.80;;;10.30;99.90;;;;;;5072015;28;20162;-49
2022/03/14 02:31:55;;;;;;;4.00;3.60;;;10.30;99.90;;;;;;5071918;28;20202;-48
2022/03/14 02:34:20;;;;;;;3.63;3.33;;;10.30;99.90;;;;;;5072220;28;20243;-48
2022/03/14 02:36:46;;;;;;;4.60;3.60;;;10.30;99.90;;;;;;5071937;28;20280;-48
2022/03/14 02:39:12;;;;;;;4.15;3.70;;;10.40;99.90;;;;;;5054304;28;20162;-48
2022/03/14 02:41:38;;;;;;;4.38;3.40;;;10.30;99.90;;;;;;5072137;28;20543;-48
2022/03/14 02:44:08;;;;;;;4.35;3.70;;;10.40;99.90;;;;;;5072268;28;20158;-48
2022/03/14 02:46:35;;;;;;;3.97;2.95;;;10.40;99.90;;;;;;5072014;28;20297;-48
2022/03/14 02:49:02;;;;;;;4.40;3.22;;;10.40;99.90;;;;;;5072351;28;20197;-48
2022/03/14 02:51:27;;;;;;;4.45;3.53;;;10.40;99.90;;;;;;5072134;28;20264;-48
2022/03/14 02:53:56;;;;;;;4.80;3.83;;;10.40;99.90;;;;;;5071988;28;20216;-49
2022/03/14 02:56:22;;;;;;;5.05;3.65;;;10.10;99.90;;;;;;5071916;28;20224;-48
2022/03/14 02:58:52;;;;;;;5.63;4.70;;;10.00;99.90;;;;;;5072012;28;20528;-48
2022/03/14 03:01:18;;;;;;;4.80;3.78;;;9.90;99.90;;;;;;5071626;28;20178;-48
2022/03/14 03:03:44;;;;;;;4.72;3.97;;;9.90;99.90;;;;;;5072036;28;20174;-48
2022/03/14 03:06:10;;;;;;;4.78;4.28;;;9.90;99.90;;;;;;5071638;28;20581;-48
2022/03/14 03:08:35;;;;;;;6.72;4.47;;;9.90;99.90;;;;;;5071739;28;20162;-48
2022/03/14 03:11:01;;;;;;;6.20;4.50;;;9.90;99.90;;;;;;5072128;28;20173;-48
2022/03/14 03:13:27;;;;;;;6.63;4.95;;;9.90;99.90;;;;;;5071554;28;20178;-48
2022/03/14 03:15:53;;;;;;;5.72;4.95;;;10.00;99.90;;;;;;5071647;28;20193;-48
2022/03/14 03:18:19;;;;;;;6.90;4.80;;;9.80;99.90;;;;;;5072843;28;20268;-48
2022/03/14 03:20:45;;;;;;;8.10;5.18;;;9.80;99.90;;;;;;5075388;28;20166;-48
2022/03/14 03:23:11;;;;;;;10.13;5.22;;;9.70;99.90;;;;;;5075680;28;20236;-48
2022/03/14 03:25:36;;;;;;;5.22;4.45;;;9.70;99.90;;;;;;5075319;28;20166;-48
2022/03/14 03:28:02;;;;;;;7.65;4.78;;;9.80;99.90;;;;;;5075643;28;20639;-49
2022/03/14 03:30:27;;;;;;;6.43;5.00;;;9.70;99.90;;;;;;5075253;28;20170;-48
2022/03/14 03:32:53;;;;;;;5.18;3.78;;;9.70;99.90;;;;;;5075259;28;20174;-48
2022/03/14 03:35:19;;;;;;;4.43;3.60;;;9.60;99.90;;;;;;5075210;28;20162;-48
2022/03/14 03:37:44;;;;;;;5.10;4.28;;;9.60;99.90;;;;;;5075282;28;20733;-47
2022/03/14 03:40:10;;;;;;;4.70;4.13;;;9.70;99.90;;;;;;5075038;28;20158;-49
2022/03/14 03:42:35;;;;;;;6.47;4.25;;;9.60;99.90;;;;;;5075075;28;20170;-48
2022/03/14 03:45:01;;;;;;;4.45;3.40;;;9.70;99.90;;;;;;5075425;28;20228;-48
2022/03/14 03:47:27;;;;;;;4.65;3.90;;;9.70;99.90;;;;;;5074884;28;20222;-48
2022/03/14 03:49:52;;;;;;;6.05;3.90;;;9.80;99.90;;;;;;5074902;28;20534;-49
2022/03/14 03:52:18;;;;;;;5.25;3.78;;;9.90;99.90;;;;;;5074911;28;20174;-48
2022/03/14 03:54:43;;;;;;;4.68;3.47;;;9.80;99.90;;;;;;5074830;28;20165;-48
2022/03/14 03:57:09;;;;;;;9.70;8.68;;;9.80;99.90;;;;;;5074634;28;20205;-48
2022/03/14 03:59:34;;;;;;;17.92;12.55;;;9.80;99.90;;;;;;5075079;28;20235;-48
2022/03/14 04:02:01;;;;;;;19.40;14.65;;;9.90;99.90;;;;;;5074941;28;20571;-48
2022/03/14 04:04:27;;;;;;;24.25;19.27;;;10.00;99.90;;;;;;5074640;28;20644;-48
2022/03/14 04:06:56;;;;;;;20.42;16.80;;;9.90;99.90;;;;;;5074641;28;20177;-48
2022/03/14 04:09:22;;;;;;;17.88;11.70;;;9.90;99.90;;;;;;5074750;28;20193;-48
2022/03/14 04:11:47;;;;;;;14.68;8.43;;;10.00;99.90;;;;;;5074446;28;20193;-49
2022/03/14 04:14:13;;;;;;;13.13;8.63;;;10.00;99.90;;;;;;5074441;28;20169;-48
2022/03/14 04:16:41;;;;;;;7.55;5.55;;;10.00;99.90;;;;;;5074688;28;20206;-49
2022/03/14 04:19:06;;;;;;;8.45;6.70;;;9.90;99.90;;;;;;5074353;28;20177;-48
2022/03/14 04:21:36;;;;;;;8.85;6.38;;;10.00;99.90;;;;;;5074770;28;20170;-48
2022/03/14 04:24:04;;;;;;;6.78;5.32;;;10.00;99.90;;;;;;5074930;28;20170;-49
2022/03/14 04:26:30;;;;;;;8.77;5.40;;;9.90;99.90;;;;;;5074466;28;20204;-48
2022/03/14 04:28:55;;;;;;;10.18;4.75;;;9.90;99.90;;;;;;5074167;28;20166;-48
2022/03/14 04:31:21;;;;;;;5.78;4.15;;;10.00;99.90;;;;;;5073439;28;20170;-48
2022/03/14 04:33:47;;;;;;;7.25;4.85;;;10.00;99.90;;;;;;5074425;28;20173;-48
2022/03/14 04:36:13;;;;;;;6.28;4.22;;;10.00;99.90;;;;;;5073997;28;20186;-48
2022/03/14 04:38:39;;;;;;;5.72;4.35;;;10.00;99.90;;;;;;5074009;28;20215;-48
2022/03/14 04:41:05;;;;;;;5.28;3.47;;;9.90;99.90;;;;;;5074486;28;20261;-48
2022/03/14 04:43:31;;;;;;;6.00;3.10;;;9.90;99.90;;;;;;5056207;28;20208;-48
2022/03/14 04:45:57;;;;;;;4.88;3.03;;;9.90;99.90;;;;;;5073956;28;20166;-49
2022/03/14 04:48:23;;;;;;;3.60;3.17;;;9.90;99.90;;;;;;5073849;28;20185;-48
2022/03/14 04:50:50;;;;;;;6.47;3.53;;;9.80;99.90;;;;;;5073788;28;20619;-48
2022/03/14 04:53:16;;;;;;;4.03;3.15;;;9.90;99.90;;;;;;5073994;28;20198;-48
2022/03/14 04:55:42;;;;;;;4.07;2.85;;;9.90;99.90;;;;;;5073871;28;20584;-48
2022/03/14 04:58:12;;;;;;;6.47;3.22;;;9.80;99.90;;;;;;5073772;28;20300;-48
2022/03/14 05:00:38;;;;;;;5.40;2.72;;;9.80;99.90;;;;;;5073863;28;20181;-49
2022/03/14 05:03:05;;;;;;;3.65;2.90;;;9.80;99.90;;;;;;5073892;28;20170;-48
2022/03/14 05:05:31;;;;;;;3.72;2.78;;;9.70;99.90;;;;;;5073902;28;20167;-49
2022/03/14 05:07:57;;;;;;;5.28;2.95;;;9.70;99.90;;;;;;5073408;28;20178;-48
2022/03/14 05:10:23;;;;;;;8.30;2.72;;;9.70;99.90;;;;;;5073448;28;20162;-49
2022/03/14 05:12:49;;;;;;;6.97;2.58;;;9.70;99.90;;;;;;5073564;28;20181;-49
2022/03/14 05:15:18;;;;;;;6.95;2.30;;;9.60;99.90;;;;;;5073140;28;20248;-49
2022/03/14 05:17:47;;;;;;;4.75;2.88;;;9.60;99.90;;;;;;5073122;28;20297;-49
2022/03/14 05:20:13;;;;;;;6.13;2.42;;;9.60;99.90;;;;;;5073318;28;20223;-49
2022/03/14 05:22:48;;;;;;;2.72;2.53;;;9.60;99.90;;;;;;5073141;28;20166;-49
2022/03/14 05:25:18;;;;;;;3.50;2.45;;;9.60;99.90;;;;;;5073374;28;20158;-49
2022/03/14 05:27:43;;;;;;;3.95;2.47;;;9.60;99.90;;;;;;5073085;28;20170;-49
2022/03/14 05:30:09;;;;;;;2.50;2.08;;;9.60;99.90;;;;;;5072905;28;20234;-49
2022/03/14 05:32:36;;;;;;;5.07;2.65;;;9.60;99.90;;;;;;5073202;28;20193;-48
2022/03/14 05:35:03;;;;;;;4.55;2.60;;;9.60;99.90;;;;;;5073437;28;20185;-49
2022/03/14 05:37:29;;;;;;;6.82;2.22;;;9.60;99.90;;;;;;5072723;28;20705;-49
2022/03/14 05:39:55;;;;;;;6.63;2.28;;;9.60;99.90;;;;;;5072831;28;20158;-50
2022/03/14 05:42:20;;;;;;;5.13;2.40;;;9.60;99.90;;;;;;5071858;28;20162;-49
2022/03/14 05:44:46;;;;;;;4.82;2.33;;;9.50;99.90;;;;;;5072964;28;20166;-49
2022/03/14 05:47:12;;;;;;;2.58;2.38;;;9.50;99.90;;;;;;5072458;28;20224;-48
2022/03/14 05:49:37;;;;;;;7.93;2.60;;;9.50;99.90;;;;;;5072278;28;20178;-48
2022/03/14 05:52:03;;;;;;;3.28;2.80;;;9.50;99.90;;;;;;5072818;28;20253;-49
2022/03/14 05:54:29;;;;;;;4.13;2.83;;;9.50;99.90;;;;;;5072698;28;20174;-48
2022/03/14 05:56:54;;;;;;;4.45;2.75;;;9.50;99.90;;;;;;5072163;28;20730;-48
2022/03/14 05:59:20;;;;;;;7.53;2.80;;;9.50;99.90;;;;;;5072454;28;20178;-48
2022/03/14 06:01:47;;;;;;;4.63;2.70;;;9.50;99.90;;;;;;5072392;28;20166;-48
2022/03/14 06:04:13;;;;;;;5.50;2.92;;;9.40;99.90;;;;;;5072076;28;20216;-48
2022/03/14 06:06:38;;;;;;;5.50;2.40;;;9.40;99.90;;;;;;5072313;28;20162;-48
2022/03/14 06:09:04;;;;;;;6.28;3.20;;;9.40;99.90;;;;;;5072786;28;20166;-48
2022/03/14 06:11:30;;;;;;;3.97;2.70;;;9.40;99.90;;;;;;5072205;28;20174;-49
2022/03/14 06:13:56;;;;;;;6.13;2.90;;;9.40;99.90;;;;;;5072171;28;20166;-49
2022/03/14 06:16:22;;;;;;;4.47;2.20;;;9.50;99.90;;;;;;5071954;28;20196;-49
2022/03/14 06:18:47;;;;;;;5.68;2.53;;;9.50;99.90;;;;;;5072026;28;20170;-49
2022/03/14 06:21:14;;;;;;;8.35;3.08;;;9.50;99.90;;;;;;5072339;28;20184;-49
2022/03/14 06:23:39;;;;;;;6.95;2.85;;;9.50;99.90;;;;;;5072387;28;20174;-48
2022/03/14 06:26:05;;;;;;;9.95;3.35;;;9.50;99.90;;;;;;5072212;28;20309;-49
2022/03/14 06:28:30;;;;;;;6.22;2.80;;;9.50;99.90;;;;;;5072262;28;20181;-48
2022/03/14 06:30:56;;;;;;;4.25;2.80;;;9.50;99.90;;;;;;5071901;28;20232;-49
2022/03/14 06:33:21;;;;;;;3.80;2.63;;;9.50;99.90;;;;;;5071795;28;20623;-52
2022/03/14 06:35:47;;;;;;;9.07;3.20;;;9.60;99.90;;;;;;5072032;28;20208;-49
2022/03/14 06:38:12;;;;;;;5.53;3.17;;;9.50;99.90;;;;;;5071768;28;20563;-49
2022/03/14 06:40:41;;;;;;;8.68;2.53;;;9.60;99.90;;;;;;5071954;28;20174;-49
2022/03/14 06:43:10;;;;;;;6.03;2.67;;;9.50;99.90;;;;;;5071654;28;20215;-49
2022/03/14 06:45:38;;;;;;;7.32;3.05;;;9.50;99.90;;;;;;5053730;28;20173;-49
2022/03/14 06:48:05;;;;;;;4.40;2.60;;;9.60;99.90;;;;;;5071688;28;20698;-49
2022/03/14 06:50:31;;;;;;;7.82;2.53;;;9.60;99.90;;;;;;5072169;28;20189;-49
2022/03/14 06:53:00;;;;;;;5.88;2.70;;;9.60;99.90;;;;;;5072329;28;20177;-48
2022/03/14 06:55:26;;;;;;;6.05;2.42;;;9.60;99.90;;;;;;5076094;28;20314;-49
2022/03/14 06:57:52;;;;;;;5.38;2.67;;;9.70;99.90;;;;;;5075968;28;20206;-49
2022/03/14 07:00:18;;;;;;;4.68;2.55;;;9.70;99.90;;;;;;5075739;28;20172;-49
2022/03/14 07:02:44;;;;;;;5.10;3.28;;;9.70;99.90;;;;;;5076022;28;20180;-48
2022/03/14 07:05:17;;;;;;;5.68;2.92;;;9.60;99.90;;;;;;5075696;28;20173;-48
2022/03/14 07:07:45;;;;;;;7.35;3.45;;;9.60;99.90;;;;;;5075930;28;20256;-49
2022/03/14 07:10:12;;;;;;;6.88;2.95;;;9.60;99.90;;;;;;5075799;28;20181;-49
2022/03/14 07:12:44;;;;;;;5.47;2.83;;;9.60;99.90;;;;;;5075874;28;20170;-49
2022/03/14 07:15:11;;;;;;;10.10;3.55;;;9.60;99.90;;;;;;5075736;28;20178;-49
2022/03/14 07:17:36;;;;;;;5.80;2.83;;;9.70;99.90;;;;;;5075401;28;20570;-48
2022/03/14 07:20:02;;;;;;;3.78;2.40;;;9.70;99.90;;;;;;5076064;28;20174;-49
2022/03/14 07:22:30;;;;;;;4.90;2.55;;;9.70;99.90;;;;;;5075311;28;20666;-49
2022/03/14 07:24:56;;;;;;;5.45;2.80;;;9.70;99.90;;;;;;5075199;28;20600;-49
2022/03/14 07:27:22;;;;;;;6.28;2.72;;;9.70;99.90;;;;;;5075346;28;20256;-47
2022/03/14 07:29:47;;;;;;;6.00;2.65;;;9.80;99.90;;;;;;5072837;28;20209;-48
2022/03/14 07:32:13;;;;;;;7.85;2.90;;;9.80;99.90;;;;;;5073936;28;20260;-48
2022/03/14 07:34:38;;;;;;;6.57;2.92;;;9.80;99.90;;;;;;5073668;28;20211;-48
2022/03/14 07:37:04;;;;;;;5.32;3.05;;;9.80;99.90;;;;;;5074256;28;20204;-48
2022/03/14 07:39:30;;;;;;;8.20;2.80;;;9.80;99.90;;;;;;5074147;28;20634;-48
2022/03/14 07:41:56;;;;;;;10.35;3.17;;;9.90;99.90;;;;;;5073789;28;20682;-47
2022/03/14 07:44:21;;;;;;;4.47;2.80;;;10.00;99.90;;;;;;5073684;28;20211;-48
2022/03/14 07:46:47;;;;;;;5.72;2.88;;;9.90;99.90;;;;;;5073591;28;20236;-46
2022/03/14 07:49:14;;;;;;;9.13;3.13;;;10.00;99.90;;;;;;5073779;28;20158;-46
2022/03/14 07:51:40;;;;;;;4.15;2.63;;;10.10;99.90;;;;;;5073386;28;20638;-48
2022/03/14 07:54:06;;;;;;;4.45;2.58;;;10.10;99.90;;;;;;5073747;28;20178;-47
2022/03/14 07:56:31;;;;;;;4.45;2.55;;;10.20;99.90;;;;;;5073551;28;20563;-48
2022/03/14 07:58:57;;;;;;;7.53;2.67;;;10.10;99.90;;;;;;5074407;28;20162;-47
2022/03/14 08:01:22;;;;;;;6.88;2.50;;;10.20;99.90;;;;;;5074624;28;20177;-48
2022/03/14 08:03:48;;;;;;;5.65;2.50;;;10.20;99.90;;;;;;5074699;28;20172;-48
2022/03/14 08:06:23;;;;;;;6.95;3.03;;;10.20;99.90;;;;;;5073512;28;20166;-49
2022/03/14 08:08:50;;;;;;;7.25;2.75;;;10.30;99.90;;;;;;5074766;28;20192;-49
2022/03/14 08:11:16;;;;;;;5.80;2.88;;;10.30;99.90;;;;;;5074745;28;20527;-48
2022/03/14 08:13:42;;;;;;;8.02;2.83;;;10.30;99.90;;;;;;5074806;28;20257;-50
2022/03/14 08:16:07;;;;;;;9.60;2.90;;;10.30;99.90;;;;;;5074597;28;20201;-48
2022/03/14 08:18:33;;;;;;;5.32;2.88;;;10.40;99.90;;;;;;5074812;28;20239;-48
2022/03/14 08:20:59;;;;;;;5.80;2.60;;;10.50;99.90;;;;;;5074627;28;20249;-48
2022/03/14 08:23:25;;;;;;;4.82;2.20;;;10.70;99.90;;;;;;5074611;28;20587;-48
2022/03/14 08:25:51;;;;;;;9.93;3.00;;;10.70;99.90;;;;;;5074032;28;20501;-48
2022/03/14 08:28:17;;;;;;;4.53;2.38;;;10.70;99.90;;;;;;5074170;28;20164;-48
2022/03/14 08:30:44;;;;;;;6.13;2.40;;;10.70;99.90;;;;;;5074120;28;20177;-48
2022/03/14 08:33:10;;;;;;;5.00;2.15;;;10.70;99.90;;;;;;5074022;28;20669;-48
2022/03/14 08:35:35;;;;;;;7.60;2.60;;;10.80;99.90;;;;;;5074130;28;20174;-48
2022/03/14 08:38:01;;;;;;;6.68;2.60;;;10.90;99.90;;;;;;5074221;28;20288;-48
2022/03/14 08:40:27;;;;;;;3.67;2.30;;;10.90;99.90;;;;;;5074244;28;20158;-48
2022/03/14 08:42:55;;;;;;;4.95;2.58;;;10.90;99.90;;;;;;5074042;28;20219;-49
2022/03/14 08:45:23;;;;;;;5.57;2.50;;;10.80;99.90;;;;;;5073842;28;20173;-48
2022/03/14 08:47:49;;;;;;;4.18;2.40;;;10.80;99.90;;;;;;5073710;28;20750;-48
2022/03/14 08:50:16;;;;;;;5.10;2.33;;;10.80;99.90;;;;;;5073833;28;20248;-48
2022/03/14 08:52:42;;;;;;;5.95;2.42;;;10.70;99.90;;;;;;5073619;28;20696;-48
2022/03/14 08:55:08;;;;;;;5.18;2.20;;;10.60;99.90;;;;;;5073766;28;20184;-48
2022/03/14 08:57:33;;;;;;;6.78;3.08;;;10.60;99.90;;;;;;5073832;28;20193;-48
2022/03/14 09:00:00;;;;;;;3.13;2.63;;;10.70;99.90;;;;;;5073513;28;20564;-48
2022/03/14 09:02:26;;;;;;;4.40;2.80;;;10.90;99.90;;;;;;5073855;28;20253;-48
2022/03/14 09:04:51;;;;;;;6.47;2.60;;;11.10;99.90;;;;;;5073447;28;20177;-48
2022/03/14 09:07:28;;;;;;;7.88;2.70;;;11.20;99.90;;;;;;5073428;28;20711;-48
2022/03/14 09:09:59;;;;;;;6.22;2.80;;;11.40;99.90;;;;;;5073387;28;20186;-48
2022/03/14 09:12:24;;;;;;;7.10;2.83;;;11.40;99.90;;;;;;5073293;28;20189;-48
2022/03/14 09:14:50;;;;;;;4.15;2.20;;;11.30;99.90;;;;;;5073300;28;20631;-49
2022/03/14 09:17:16;;;;;;;6.53;2.38;;;11.20;99.90;;;;;;5072704;28;20251;-48
2022/03/14 09:19:41;;;;;;;4.10;2.30;;;11.20;99.90;;;;;;5072904;28;20162;-48
2022/03/14 09:22:09;;;;;;;4.43;2.38;;;11.30;99.90;;;;;;5073056;28;20178;-48
2022/03/14 09:24:36;;;;;;;2.47;2.05;;;11.30;99.90;;;;;;5073334;28;20184;-49
2022/03/14 09:27:05;;;;;;;2.80;2.33;;;11.40;99.90;;;;;;5073493;28;20180;-48
2022/03/14 09:29:30;;;;;;;3.55;2.30;;;11.40;99.90;;;;;;5073008;28;20550;-49
2022/03/14 09:31:56;;;;;;;3.97;2.60;;;11.50;99.90;;;;;;5072973;28;20185;-48
2022/03/14 09:34:22;;;;;;;5.15;2.60;;;11.40;99.90;;;;;;5072799;28;20154;-48
2022/03/14 09:36:48;;;;;;;6.10;2.78;;;11.40;99.90;;;;;;5072555;28;20259;-49
2022/03/14 09:39:14;;;;;;;4.70;2.55;;;11.50;99.90;;;;;;5073045;28;20189;-48
2022/03/14 09:41:42;;;;;;;6.47;2.72;;;11.50;99.90;;;;;;5072897;28;20193;-49
2022/03/14 09:44:09;;;;;;;3.08;2.33;;;11.50;99.90;;;;;;5072584;28;20200;-48
2022/03/14 09:46:38;;;;;;;6.45;3.35;;;11.50;99.90;;;;;;5072836;28;20209;-50
2022/03/14 09:49:08;;;;;;;5.25;2.70;;;11.70;99.90;;;;;;5073026;28;20563;-48
2022/03/14 09:51:38;;;;;;;4.72;2.75;;;11.80;99.90;;;;;;5073064;28;20166;-49
2022/03/14 09:54:09;;;;;;;8.13;2.90;;;11.80;99.90;;;;;;5073042;28;20251;-48
2022/03/14 09:56:34;;;;;;;3.70;2.75;;;11.90;99.90;;;;;;5073015;28;20285;-48
2022/03/14 09:59:00;;;;;;;5.07;2.30;;;11.90;99.90;;;;;;5054542;28;20205;-49
2022/03/14 10:01:27;;;;;;;4.18;2.75;;;11.80;99.90;;;;;;5072635;28;20166;-48
2022/03/14 10:03:54;;;;;;;4.25;3.53;;;11.70;99.90;;;;;;5072342;28;20685;-50
2022/03/14 10:06:20;;;;;;;5.82;2.83;;;11.60;99.90;;;;;;5072102;28;20185;-48
2022/03/14 10:08:46;;;;;;;4.97;2.53;;;11.50;99.90;;;;;;5072174;28;20170;-51
2022/03/14 10:11:11;;;;;;;4.18;2.92;;;11.50;99.90;;;;;;5072249;28;20170;-50
2022/03/14 10:13:37;;;;;;;4.10;2.72;;;11.60;99.90;;;;;;5071648;28;20165;-49
2022/03/14 10:16:04;;;;;;;5.05;2.90;;;11.70;99.90;;;;;;5072353;28;20166;-47
2022/03/14 10:18:50;;;;;;;4.00;3.00;;;11.80;99.90;;;;;;5072445;28;20170;-50
2022/03/14 10:21:35;;;;;;;5.25;3.30;;;12.00;99.90;;;;;;5072187;28;20198;-49
2022/03/14 10:24:03;;;;;;;6.28;3.17;;;11.90;99.90;;;;;;5071901;28;20719;-48
2022/03/14 10:26:29;;;;;;;5.85;2.88;;;11.70;99.90;;;;;;5072056;28;20171;-48
2022/03/14 10:28:57;;;;;;;3.95;3.03;;;11.70;99.90;;;;;;5071089;28;20188;-48
2022/03/14 10:31:37;;;;;;;5.82;3.08;;;11.80;99.90;;;;;;5071836;28;20162;-48
2022/03/14 10:34:04;;;;;;;8.85;2.88;;;11.80;99.90;;;;;;5071908;28;20169;-47
2022/03/14 10:36:45;;;;;;;6.80;3.60;;;11.70;99.90;;;;;;5071581;28;20535;-48
2022/03/14 10:39:19;;;;;;;5.50;3.35;;;11.80;99.90;;;;;;5072025;28;20173;-49
2022/03/14 10:41:47;;;;;;;4.25;2.63;;;11.80;99.90;;;;;;5071471;28;20677;-48
2022/03/14 10:44:23;;;;;;;4.82;2.97;;;11.80;99.90;;;;;;5071777;28;20621;-48
2022/03/14 10:46:49;;;;;;;4.43;2.70;;;11.70;99.90;;;;;;5071468;28;20245;-48
2022/03/14 10:49:18;;;;;;;2.95;2.50;;;11.80;99.90;;;;;;5071655;28;20267;-48
2022/03/14 10:51:54;;;;;;;3.28;2.53;;;12.00;99.90;;;;;;5071968;28;20170;-48
2022/03/14 10:54:20;;;;;;;6.20;2.72;;;12.40;99.90;;;;;;5071984;28;20170;-48
2022/03/14 10:57:05;;;;;;;4.30;2.65;;;12.20;99.90;;;;;;5071657;28;20197;-48
2022/03/14 10:59:43;;;;;;;4.68;3.15;;;12.30;99.90;;;;;;5071386;28;20174;-48
2022/03/14 11:02:17;;;;;;;5.32;3.05;;;12.30;99.90;;;;;;5071632;28;20170;-48
2022/03/14 11:04:47;;;;;;;8.52;3.13;;;12.40;99.90;;;;;;5071922;28;20174;-48
2022/03/14 11:07:17;;;;;;;5.72;2.97;;;12.60;99.90;;;;;;5071879;28;20177;-49
2022/03/14 11:09:48;;;;;;;3.47;2.35;;;12.60;99.90;;;;;;5071390;28;20174;-47
2022/03/14 11:12:17;;;;;;;4.50;2.42;;;12.60;99.90;;;;;;5071589;28;20259;-49
2022/03/14 11:14:50;;;;;;;3.95;2.58;;;12.60;99.90;;;;;;5071732;28;20265;-49
2022/03/14 11:17:20;;;;;;;5.10;2.90;;;12.80;99.90;;;;;;5071732;28;20209;-48
2022/03/14 11:19:46;;;;;;;6.28;2.70;;;12.90;99.90;;;;;;5071608;28;20575;-49
2022/03/14 11:22:13;;;;;;;3.92;2.28;;;12.80;99.90;;;;;;5071285;28;20174;-49
2022/03/14 11:24:47;;;;;;;3.80;2.22;;;12.80;99.90;;;;;;5071379;28;20220;-48
2022/03/14 11:27:18;;;;;;;3.95;2.15;;;12.90;99.90;;;;;;5053734;28;20272;-47
2022/03/14 11:29:46;;;;;;;3.17;2.00;;;12.90;99.90;;;;;;5071482;28;20170;-50
2022/03/14 11:32:13;;;;;;;3.40;1.90;;;12.90;99.90;;;;;;5071475;28;20170;-49
2022/03/14 11:34:40;;;;;;;3.08;2.20;;;12.80;99.90;;;;;;5071145;28;20196;-49
2022/03/14 11:37:05;;;;;;;5.38;2.53;;;12.70;99.90;;;;;;5071668;28;20197;-48
2022/03/14 11:39:32;;;;;;;3.60;1.95;;;12.70;99.90;;;;;;5072960;28;20627;-48
2022/03/14 11:41:59;;;;;;;2.53;1.90;;;12.80;99.90;;;;;;5075174;28;20170;-48
2022/03/14 11:44:26;;;;;;;2.28;1.60;;;12.80;99.90;;;;;;5075319;28;20216;-50
2022/03/14 11:46:55;;;;;;;3.63;2.10;;;12.60;99.90;;;;;;5074600;28;20764;-50
2022/03/14 11:49:26;;;;;;;4.30;1.80;;;12.60;99.90;;;;;;5074854;28;20161;-50
2022/03/14 11:52:06;;;;;;;2.45;1.50;;;12.60;99.90;;;;;;5075133;28;20178;-49
2022/03/14 11:54:41;;;;;;;5.10;1.70;;;12.50;99.90;;;;;;5056953;28;20688;-48
2022/03/14 11:57:07;;;;;;;7.78;2.22;;;12.50;99.90;;;;;;5074942;28;20201;-47
2022/03/14 11:59:35;;;;;;;3.03;1.52;;;12.60;99.90;;;;;;5075000;28;20649;-47
2022/03/14 12:02:05;;;;;;;2.55;1.40;;;12.70;99.90;;;;;;5074960;28;20641;-47
2022/03/14 12:04:35;;;;;;;3.58;2.13;;;12.70;99.90;;;;;;5074818;28;20178;-48
2022/03/14 12:07:08;;;;;;;3.30;2.20;;;12.70;99.90;;;;;;5074595;28;20177;-48
2022/03/14 12:09:34;;;;;;;3.40;2.00;;;12.70;99.90;;;;;;5074869;28;20166;-47
2022/03/14 12:12:12;;;;;;;8.82;2.28;;;12.60;99.90;;;;;;5074540;28;20511;-48
2022/03/14 12:14:50;;;;;;;3.35;2.20;;;12.60;99.90;;;;;;5074619;28;20526;-47
2022/03/14 12:17:16;;;;;;;4.13;2.45;;;12.60;99.90;;;;;;5074625;28;20240;-47
2022/03/14 12:19:49;;;;;;;4.63;2.78;;;12.70;99.90;;;;;;5074339;28;20254;-48
2022/03/14 12:22:34;;;;;;;4.68;2.58;;;12.70;99.90;;;;;;5074401;28;20197;-47
2022/03/14 12:25:11;;;;;;;3.58;2.42;;;12.70;99.90;;;;;;5073270;28;20571;-49
2022/03/14 12:27:40;;;;;;;5.88;2.78;;;12.60;99.90;;;;;;5074026;28;20199;-48
2022/03/14 12:30:06;;;;;;;3.83;2.20;;;12.50;99.90;;;;;;5056011;28;20174;-47
2022/03/14 12:32:53;;;;;;;5.65;2.28;;;12.50;99.90;;;;;;5074470;28;20170;-48
2022/03/14 12:35:24;;;;;;;4.07;2.72;;;12.60;99.90;;;;;;5074071;28;20591;-47
2022/03/14 12:37:58;;;;;;;4.55;2.28;;;12.60;99.90;;;;;;5073990;28;20204;-47
2022/03/14 12:40:32;;;;;;;3.50;2.20;;;12.80;99.90;;;;;;5073614;28;20651;-47
2022/03/14 12:43:00;;;;;;;4.32;2.60;;;13.00;99.90;;;;;;5073447;28;20173;-48
2022/03/14 12:45:47;;;;;;;6.32;2.80;;;13.00;99.90;;;;;;5073361;28;20631;-47
2022/03/14 12:48:25;;;;;;;3.47;2.47;;;12.90;99.90;;;;;;5073833;28;20186;-47
2022/03/14 12:50:52;;;;;;;4.32;2.40;;;13.10;99.90;;;;;;5073013;28;20245;-47